createdAt,value
2018-06-30T00:02:25.580Z,17.30
2018-06-30T00:07:23.354Z,17.20
2018-06-30T00:09:51.807Z,17.20
2018-06-30T00:12:20.342Z,17.10
2018-06-30T00:14:48.782Z,17.10
2018-06-30T00:17:17.286Z,17.10
2018-06-30T00:19:45.767Z,17.10
2018-06-30T00:22:14.375Z,17.10
2018-06-30T00:24:42.860Z,17.10
2018-06-30T00:27:16.569Z,17.10
2018-06-30T00:29:45.011Z,17.00
2018-06-30T00:32:13.445Z,17.00
2018-06-30T00:34:41.929Z,17.00
2018-06-30T00:37:10.402Z,17.00
2018-06-30T00:39:39.553Z,17.00
2018-06-30T00:42:07.980Z,17.00
2018-06-30T00:44:36.434Z,17.00
2018-06-30T00:47:05.308Z,17.00
2018-06-30T00:49:33.913Z,17.00
2018-06-30T00:52:02.393Z,16.90
2018-06-30T00:54:30.843Z,16.90
2018-06-30T00:59:27.450Z,16.90
2018-06-30T01:01:56.012Z,16.80
2018-06-30T01:04:24.460Z,16.80
2018-06-30T01:06:53.306Z,16.70
2018-06-30T01:09:21.767Z,16.80
2018-06-30T01:11:50.276Z,16.80
2018-06-30T01:14:18.745Z,16.80
2018-06-30T01:16:47.236Z,16.80
2018-06-30T01:19:15.670Z,16.80
2018-06-30T01:21:44.174Z,16.70
2018-06-30T01:24:12.712Z,16.60
2018-06-30T01:26:41.208Z,16.70
2018-06-30T01:29:09.752Z,16.70
2018-06-30T01:31:38.235Z,16.70
2018-06-30T01:34:06.702Z,16.60
2018-06-30T01:36:35.185Z,16.70
2018-06-30T01:39:04.833Z,16.60
2018-06-30T01:44:01.389Z,16.60
2018-06-30T01:46:29.846Z,16.60
2018-06-30T01:48:58.330Z,16.50
2018-06-30T01:51:26.771Z,16.50
2018-06-30T01:53:56.424Z,16.50
2018-06-30T01:56:24.859Z,16.40
2018-06-30T01:58:53.320Z,16.40
2018-06-30T02:01:21.716Z,16.40
2018-06-30T02:03:50.236Z,16.30
2018-06-30T02:06:18.632Z,16.30
2018-06-30T02:08:47.213Z,16.30
2018-06-30T02:11:15.613Z,16.30
2018-06-30T02:13:44.040Z,16.30
2018-06-30T02:16:12.513Z,16.40
2018-06-30T02:18:40.985Z,16.40
2018-06-30T02:21:09.426Z,16.30
2018-06-30T02:23:37.835Z,16.40
2018-06-30T02:26:06.268Z,16.30
2018-06-30T02:28:34.686Z,16.30
2018-06-30T02:31:03.148Z,16.30
2018-06-30T02:33:31.585Z,16.30
2018-06-30T02:36:00.042Z,16.30
2018-06-30T02:38:28.747Z,16.30
2018-06-30T02:40:57.196Z,16.20
2018-06-30T02:43:26.419Z,16.20
2018-06-30T02:45:54.924Z,16.20
2018-06-30T02:48:23.782Z,16.20
2018-06-30T02:50:52.316Z,16.20
2018-06-30T02:53:20.755Z,16.20
2018-06-30T02:55:49.190Z,16.20
2018-06-30T02:58:17.670Z,16.20
2018-06-30T03:00:46.198Z,16.10
2018-06-30T03:03:14.600Z,16.00
2018-06-30T03:05:43.077Z,16.00
2018-06-30T03:08:11.525Z,15.90
2018-06-30T03:10:40.033Z,15.90
2018-06-30T03:13:08.399Z,15.90
2018-06-30T03:15:36.839Z,15.90
2018-06-30T03:18:05.248Z,15.90
2018-06-30T03:20:33.685Z,15.90
2018-06-30T03:23:02.169Z,15.90
2018-06-30T03:25:30.600Z,15.80
2018-06-30T03:27:59.090Z,15.70
2018-06-30T03:30:28.301Z,15.80
2018-06-30T03:32:56.710Z,15.80
2018-06-30T03:35:25.113Z,15.80
2018-06-30T03:37:54.063Z,15.70
2018-06-30T03:40:22.487Z,15.70
2018-06-30T03:42:50.930Z,15.70
2018-06-30T03:45:19.527Z,15.70
2018-06-30T03:47:48.226Z,15.70
2018-06-30T03:50:16.715Z,15.70
2018-06-30T03:52:45.097Z,15.70
2018-06-30T03:55:13.501Z,15.70
2018-06-30T03:57:41.913Z,15.80
2018-06-30T04:00:10.432Z,15.80
2018-06-30T04:02:38.844Z,15.80
2018-06-30T04:05:07.311Z,15.80
2018-06-30T04:07:35.898Z,15.90
2018-06-30T04:10:05.225Z,15.90
2018-06-30T04:12:34.625Z,15.90
2018-06-30T04:15:03.058Z,15.80
2018-06-30T04:17:31.438Z,15.90
2018-06-30T04:19:59.869Z,15.90
2018-06-30T04:22:28.362Z,16.00
2018-06-30T04:24:56.775Z,16.10
2018-06-30T04:27:25.298Z,16.10
2018-06-30T04:29:53.779Z,16.20
2018-06-30T04:32:22.146Z,16.20
2018-06-30T04:34:50.650Z,16.20
2018-06-30T04:37:19.144Z,16.20
2018-06-30T04:39:47.568Z,16.30
2018-06-30T04:42:16.821Z,16.30
2018-06-30T04:44:45.265Z,16.30
2018-06-30T04:47:13.800Z,16.30
2018-06-30T04:49:42.228Z,16.40
2018-06-30T04:52:10.707Z,16.40
2018-06-30T04:54:39.177Z,16.50
2018-06-30T04:57:07.617Z,16.60
2018-06-30T04:59:36.049Z,16.60
2018-06-30T05:02:04.461Z,16.60
2018-06-30T05:04:35.989Z,16.60
2018-06-30T05:07:04.402Z,16.80
2018-06-30T05:09:32.840Z,16.90
2018-06-30T05:12:01.258Z,17.10
2018-06-30T05:14:29.667Z,17.20
2018-06-30T05:16:58.150Z,17.30
2018-06-30T05:19:26.609Z,17.40
2018-06-30T05:21:55.109Z,17.60
2018-06-30T05:24:23.567Z,17.80
2018-06-30T05:26:52.074Z,18.00
2018-06-30T05:29:20.540Z,17.90
2018-06-30T05:31:49.108Z,17.80
2018-06-30T05:34:17.548Z,18.20
2018-06-30T05:36:45.961Z,18.40
2018-06-30T05:39:14.380Z,18.50
2018-06-30T05:41:42.818Z,18.80
2018-06-30T05:44:11.198Z,19.00
2018-06-30T05:46:39.677Z,19.10
2018-06-30T05:49:08.175Z,19.30
2018-06-30T05:51:36.757Z,19.50
2018-06-30T05:54:05.239Z,19.70
2018-06-30T05:56:33.795Z,20.00
2018-06-30T05:59:02.220Z,20.10
2018-06-30T06:01:30.699Z,20.60
2018-06-30T06:03:59.400Z,21.00
2018-06-30T06:06:28.011Z,21.60
2018-06-30T06:08:56.498Z,21.50
2018-06-30T06:11:24.993Z,21.60
2018-06-30T06:13:53.497Z,21.90
2018-06-30T06:16:23.390Z,22.40
2018-06-30T06:18:51.911Z,22.60
2018-06-30T06:21:20.373Z,22.80
2018-06-30T06:23:48.857Z,23.10
2018-06-30T06:26:17.338Z,23.30
2018-06-30T06:28:45.789Z,23.60
2018-06-30T06:31:14.257Z,24.70
2018-06-30T06:33:42.681Z,25.00
2018-06-30T06:36:11.176Z,24.90
2018-06-30T06:38:39.594Z,25.40
2018-06-30T06:41:08.172Z,25.70
2018-06-30T06:43:36.694Z,25.80
2018-06-30T06:46:05.248Z,26.00
2018-06-30T06:48:33.764Z,26.40
2018-06-30T06:51:02.452Z,25.90
2018-06-30T06:53:31.056Z,25.50
2018-06-30T06:55:59.711Z,25.70
2018-06-30T06:58:28.372Z,26.20
2018-06-30T07:00:56.835Z,26.40
2018-06-30T07:03:25.318Z,26.60
2018-06-30T07:05:53.806Z,26.70
2018-06-30T07:08:22.833Z,27.10
2018-06-30T07:10:51.572Z,26.90
2018-06-30T07:13:20.145Z,27.20
2018-06-30T07:15:48.585Z,26.80
2018-06-30T07:18:17.092Z,25.50
2018-06-30T07:20:45.849Z,25.50
2018-06-30T07:23:14.496Z,24.40
2018-06-30T07:25:43.032Z,25.30
2018-06-30T07:28:11.664Z,26.00
2018-06-30T07:30:41.015Z,26.60
2018-06-30T07:33:09.616Z,26.80
2018-06-30T07:35:38.194Z,26.90
2018-06-30T07:38:06.649Z,27.10
2018-06-30T07:40:35.134Z,27.70
2018-06-30T07:43:03.573Z,28.70
2018-06-30T07:45:32.016Z,28.30
2018-06-30T07:48:00.681Z,28.60
2018-06-30T07:50:29.349Z,29.10
2018-06-30T07:52:58.011Z,29.50
2018-06-30T07:55:26.503Z,29.10
2018-06-30T08:00:23.161Z,28.00
2018-06-30T08:02:51.912Z,27.20
2018-06-30T08:05:20.625Z,27.40
2018-06-30T08:07:49.178Z,28.10
2018-06-30T08:10:17.872Z,28.60
2018-06-30T08:12:46.466Z,29.30
2018-06-30T08:15:15.151Z,29.50
2018-06-30T08:17:43.833Z,29.20
2018-06-30T08:20:12.433Z,29.60
2018-06-30T08:22:41.048Z,30.20
2018-06-30T08:25:09.733Z,30.00
2018-06-30T08:27:38.348Z,29.60
2018-06-30T08:30:07.207Z,30.00
2018-06-30T08:32:35.770Z,29.50
2018-06-30T08:35:04.397Z,28.90
2018-06-30T08:37:32.994Z,29.40
2018-06-30T08:40:01.595Z,29.10
2018-06-30T08:42:30.093Z,28.20
2018-06-30T08:44:58.753Z,29.10
2018-06-30T08:47:27.192Z,29.70
2018-06-30T08:49:55.707Z,29.80
2018-06-30T08:52:24.155Z,29.80
2018-06-30T08:54:53.146Z,29.70
2018-06-30T08:57:21.707Z,29.00
2018-06-30T08:59:50.179Z,28.70
2018-06-30T09:04:46.850Z,29.40
2018-06-30T09:07:15.395Z,29.30
2018-06-30T09:09:43.901Z,30.00
2018-06-30T09:12:12.457Z,29.10
2018-06-30T09:14:40.904Z,30.00
2018-06-30T09:17:09.491Z,30.10
2018-06-30T09:19:38.014Z,30.40
2018-06-30T09:22:06.696Z,30.30
2018-06-30T09:24:35.167Z,30.80
2018-06-30T09:27:03.954Z,30.50
2018-06-30T09:29:32.550Z,29.50
2018-06-30T09:32:01.226Z,28.90
2018-06-30T09:34:29.956Z,28.90
2018-06-30T09:36:58.603Z,30.00
2018-06-30T09:39:27.499Z,30.50
2018-06-30T09:41:56.021Z,29.50
2018-06-30T09:44:24.742Z,29.20
2018-06-30T09:46:53.325Z,29.50
2018-06-30T09:49:21.795Z,29.80
2018-06-30T09:51:50.415Z,29.30
2018-06-30T09:56:47.108Z,28.70
2018-06-30T09:59:15.735Z,29.20
2018-06-30T10:01:44.234Z,30.10
2018-06-30T10:06:40.814Z,28.90
2018-06-30T10:09:10.788Z,28.50
2018-06-30T10:11:39.635Z,28.90
2018-06-30T10:14:08.363Z,27.90
2018-06-30T10:16:37.203Z,27.80
2018-06-30T10:19:06.323Z,28.30
2018-06-30T10:21:34.842Z,29.10
2018-06-30T10:24:03.394Z,29.30
2018-06-30T10:26:31.850Z,28.40
2018-06-30T10:29:00.412Z,28.50
2018-06-30T10:31:28.960Z,29.10
2018-06-30T10:36:25.822Z,29.50
2018-06-30T10:38:54.364Z,29.30
2018-06-30T10:41:22.956Z,29.50
2018-06-30T10:43:51.440Z,29.70
2018-06-30T10:46:20.018Z,29.50
2018-06-30T10:48:48.671Z,27.90
2018-06-30T10:51:17.314Z,28.40
2018-06-30T10:53:45.833Z,29.10
2018-06-30T10:56:14.356Z,29.60
2018-06-30T10:58:42.893Z,29.90
2018-06-30T11:01:11.511Z,30.10
2018-06-30T11:03:40.031Z,30.20
2018-06-30T11:06:08.589Z,29.90
2018-06-30T11:08:37.104Z,30.30
2018-06-30T11:11:05.701Z,30.90
2018-06-30T11:13:34.164Z,29.20
2018-06-30T11:16:02.704Z,29.70
2018-06-30T11:18:31.181Z,29.00
2018-06-30T11:20:59.659Z,29.80
2018-06-30T11:23:28.190Z,30.60
2018-06-30T11:25:56.751Z,30.10
2018-06-30T11:28:25.228Z,30.70
2018-06-30T11:30:53.856Z,30.20
2018-06-30T11:33:22.654Z,29.70
2018-06-30T11:35:51.320Z,29.50
2018-06-30T11:38:19.894Z,29.80
2018-06-30T11:40:48.540Z,30.20
2018-06-30T11:43:17.089Z,31.30
2018-06-30T11:45:46.224Z,31.10
2018-06-30T11:48:14.718Z,31.50
2018-06-30T11:50:43.307Z,29.10
2018-06-30T11:53:11.825Z,29.70
2018-06-30T11:55:40.387Z,28.40
2018-06-30T12:00:37.234Z,28.30
2018-06-30T12:03:05.789Z,29.50
2018-06-30T12:05:34.297Z,29.70
2018-06-30T12:08:05.847Z,29.30
2018-06-30T12:10:34.414Z,29.90
2018-06-30T12:13:02.908Z,30.30
2018-06-30T12:15:31.450Z,30.20
2018-06-30T12:18:00.125Z,30.40
2018-06-30T12:20:28.744Z,30.20
2018-06-30T12:22:57.387Z,31.30
2018-06-30T12:25:25.994Z,31.60
2018-06-30T12:27:54.703Z,32.60
2018-06-30T12:30:23.352Z,33.30
2018-06-30T12:32:51.925Z,31.20
2018-06-30T12:35:20.452Z,30.00
2018-06-30T12:37:49.038Z,29.90
2018-06-30T12:40:17.911Z,30.00
2018-06-30T12:42:46.666Z,30.90
2018-06-30T12:45:15.215Z,30.90
2018-06-30T12:47:43.837Z,32.00
2018-06-30T12:50:12.363Z,31.20
2018-06-30T12:52:42.259Z,32.40
2018-06-30T12:55:11.170Z,32.70
2018-06-30T12:57:39.784Z,33.10
2018-06-30T13:00:08.492Z,31.90
2018-06-30T13:02:37.175Z,31.90
2018-06-30T13:05:05.945Z,31.70
2018-06-30T13:07:34.480Z,31.50
2018-06-30T13:10:03.301Z,32.20
2018-06-30T13:12:32.389Z,31.40
2018-06-30T13:15:01.233Z,30.60
2018-06-30T13:17:29.837Z,29.80
2018-06-30T13:19:58.573Z,30.00
2018-06-30T13:22:27.191Z,30.40
2018-06-30T13:24:55.778Z,31.40
2018-06-30T13:27:24.268Z,30.70
2018-06-30T13:29:52.880Z,30.90
2018-06-30T13:32:21.368Z,30.80
2018-06-30T13:34:49.903Z,31.40
2018-06-30T13:37:18.449Z,32.10
2018-06-30T13:39:47.106Z,31.50
2018-06-30T13:42:15.638Z,31.90
2018-06-30T13:44:44.129Z,31.50
2018-06-30T13:47:12.671Z,30.70
2018-06-30T13:49:41.326Z,29.90
2018-06-30T13:52:10.017Z,28.70
2018-06-30T13:54:38.652Z,27.80
2018-06-30T13:57:07.167Z,27.00
2018-06-30T13:59:35.745Z,26.60
2018-06-30T14:02:04.390Z,26.40
2018-06-30T14:04:32.953Z,26.40
2018-06-30T14:07:01.529Z,26.60
2018-06-30T14:09:30.059Z,26.60
2018-06-30T14:11:58.632Z,26.40
2018-06-30T14:14:27.111Z,26.40
2018-06-30T14:16:55.759Z,26.20
2018-06-30T14:19:24.431Z,26.00
2018-06-30T14:21:52.994Z,25.70
2018-06-30T14:24:21.595Z,25.50
2018-06-30T14:26:50.263Z,25.80
2018-06-30T14:29:18.970Z,25.50
2018-06-30T14:31:47.685Z,25.60
2018-06-30T14:34:16.396Z,25.80
2018-06-30T14:36:45.043Z,25.50
2018-06-30T14:39:13.617Z,25.50
2018-06-30T14:41:42.153Z,25.60
2018-06-30T14:44:10.796Z,25.60
2018-06-30T14:46:39.443Z,25.20
2018-06-30T14:49:08.101Z,25.30
2018-06-30T14:51:36.723Z,25.30
2018-06-30T14:54:05.262Z,25.30
2018-06-30T14:56:33.785Z,25.30
2018-06-30T14:59:02.430Z,25.40
2018-06-30T15:01:30.909Z,25.40
2018-06-30T15:03:59.376Z,25.40
2018-06-30T15:06:27.927Z,25.40
2018-06-30T15:08:56.464Z,25.30
2018-06-30T15:11:25.064Z,25.30
2018-06-30T15:13:53.619Z,25.20
2018-06-30T15:16:22.124Z,25.20
2018-06-30T15:18:50.791Z,25.10
2018-06-30T15:21:19.281Z,25.10
2018-06-30T15:23:47.877Z,25.10
2018-06-30T15:26:16.445Z,25.20
2018-06-30T15:28:44.997Z,24.90
2018-06-30T15:31:20.324Z,24.90
2018-06-30T15:33:49.045Z,24.80
2018-06-30T15:36:17.596Z,24.80
2018-06-30T15:38:47.159Z,24.80
2018-06-30T15:41:15.725Z,24.70
2018-06-30T15:43:44.250Z,24.90
2018-06-30T15:46:12.806Z,25.00
2018-06-30T15:48:41.514Z,24.60
2018-06-30T15:51:10.075Z,24.70
2018-06-30T15:53:38.578Z,24.80
2018-06-30T15:56:07.070Z,24.60
2018-06-30T15:58:35.587Z,24.60
2018-06-30T16:01:04.279Z,24.60
2018-06-30T16:03:32.761Z,24.40
2018-06-30T16:06:01.235Z,24.30
2018-06-30T16:08:29.852Z,24.30
2018-06-30T16:10:58.417Z,24.10
2018-06-30T16:13:26.973Z,24.30
2018-06-30T16:15:55.452Z,24.30
2018-06-30T16:18:23.946Z,24.40
2018-06-30T16:20:52.533Z,24.20
2018-06-30T16:23:20.981Z,24.30
2018-06-30T16:25:49.452Z,24.20
2018-06-30T16:28:17.936Z,24.20
2018-06-30T16:30:46.460Z,24.10
2018-06-30T16:33:14.942Z,24.10
2018-06-30T16:35:43.714Z,24.10
2018-06-30T16:38:12.237Z,24.20
2018-06-30T16:40:40.856Z,24.30
2018-06-30T16:43:09.433Z,24.20
2018-06-30T16:48:06.361Z,24.10
2018-06-30T16:50:34.854Z,24.10
2018-06-30T16:53:03.493Z,23.90
2018-06-30T16:55:32.113Z,23.90
2018-06-30T16:58:01.208Z,23.80
2018-06-30T17:00:29.856Z,23.80
2018-06-30T17:02:58.830Z,23.80
2018-06-30T17:05:27.791Z,23.80
2018-06-30T17:07:56.342Z,23.70
2018-06-30T17:10:24.969Z,23.70
2018-06-30T17:12:53.558Z,23.60
2018-06-30T17:17:50.868Z,23.50
2018-06-30T17:20:19.382Z,23.50
2018-06-30T17:22:48.273Z,23.30
2018-06-30T17:25:16.984Z,23.30
2018-06-30T17:27:45.618Z,23.30
2018-06-30T17:30:14.423Z,23.40
2018-06-30T17:32:43.362Z,23.20
2018-06-30T17:35:11.916Z,23.10
2018-06-30T17:37:40.837Z,22.90
2018-06-30T17:40:09.502Z,22.90
2018-06-30T17:42:38.163Z,22.80
2018-06-30T17:45:08.063Z,22.80
2018-06-30T17:47:43.029Z,22.70
2018-06-30T17:50:13.129Z,22.70
2018-06-30T17:52:44.897Z,22.60
2018-06-30T17:55:13.829Z,22.60
2018-06-30T18:00:12.544Z,22.50
2018-06-30T18:02:41.363Z,22.50
2018-06-30T18:05:10.464Z,22.50
2018-06-30T18:07:39.204Z,22.40
2018-06-30T18:10:07.969Z,22.30
2018-06-30T18:12:42.982Z,22.20
2018-06-30T18:15:11.613Z,22.20
2018-06-30T18:17:40.172Z,22.10
2018-06-30T18:20:08.824Z,22.00
2018-06-30T18:22:37.470Z,22.00
2018-06-30T18:25:06.167Z,22.00
2018-06-30T18:27:34.769Z,21.90
2018-06-30T18:30:03.478Z,21.80
2018-06-30T18:32:32.088Z,21.70
2018-06-30T18:35:00.708Z,21.70
2018-06-30T18:37:29.324Z,21.50
2018-06-30T18:39:58.160Z,21.40
2018-06-30T18:42:26.842Z,21.30
2018-06-30T18:44:55.647Z,21.20
2018-06-30T18:47:24.482Z,21.20
2018-06-30T18:49:53.492Z,21.10
2018-06-30T18:52:22.317Z,21.00
2018-06-30T18:54:51.089Z,20.90
2018-06-30T18:59:48.170Z,20.80
2018-06-30T19:02:16.922Z,20.60
2018-06-30T19:04:45.682Z,20.50
2018-06-30T19:07:14.409Z,20.50
2018-06-30T19:09:43.035Z,20.40
2018-06-30T19:12:11.880Z,20.30
2018-06-30T19:14:40.411Z,20.20
2018-06-30T19:17:09.162Z,20.20
2018-06-30T19:19:37.905Z,20.10
2018-06-30T19:22:06.549Z,20.00
2018-06-30T19:24:35.202Z,19.80
2018-06-30T19:27:03.927Z,19.80
2018-06-30T19:29:32.620Z,19.70
2018-06-30T19:32:01.134Z,19.60
2018-06-30T19:34:29.694Z,19.50
2018-06-30T19:36:58.304Z,19.50
2018-06-30T19:39:27.047Z,19.40
2018-06-30T19:41:55.732Z,19.30
2018-06-30T19:44:24.434Z,19.20
2018-06-30T19:46:53.052Z,19.20
2018-06-30T19:49:21.732Z,19.10
2018-06-30T19:51:50.448Z,19.00
2018-06-30T19:54:19.044Z,18.90
2018-06-30T19:56:47.948Z,18.90
2018-06-30T19:59:16.544Z,18.80
2018-06-30T20:01:45.136Z,18.70
2018-06-30T20:04:13.789Z,18.70
2018-06-30T20:06:42.539Z,18.50
2018-06-30T20:09:11.238Z,18.50
2018-06-30T20:11:40.087Z,18.40
2018-06-30T20:14:08.885Z,18.30
2018-06-30T20:16:37.590Z,18.20
2018-06-30T20:19:06.592Z,18.20
2018-06-30T20:21:35.435Z,18.10
2018-06-30T20:24:04.303Z,18.10
2018-06-30T20:26:33.113Z,18.00
2018-06-30T20:29:02.026Z,17.90
2018-06-30T20:31:30.661Z,17.90
2018-06-30T20:33:59.313Z,17.80
2018-06-30T20:36:28.036Z,17.80
2018-06-30T20:38:56.874Z,17.70
2018-06-30T20:41:25.792Z,17.70
2018-06-30T20:43:54.443Z,17.60
2018-06-30T20:46:23.129Z,17.50
2018-06-30T20:48:51.899Z,17.50
2018-06-30T20:51:20.635Z,17.40
2018-06-30T20:53:49.513Z,17.40
2018-06-30T20:56:18.305Z,17.30
2018-06-30T20:58:47.048Z,17.20
2018-06-30T21:01:15.768Z,17.20
2018-06-30T21:03:44.444Z,17.10
2018-06-30T21:06:13.241Z,17.10
2018-06-30T21:08:42.215Z,17.00
2018-06-30T21:11:10.962Z,16.90
2018-06-30T21:13:40.329Z,16.80
2018-06-30T21:16:09.154Z,16.80
2018-06-30T21:18:37.908Z,16.80
2018-06-30T21:23:35.866Z,16.70
2018-06-30T21:28:33.272Z,16.50
2018-06-30T21:31:01.935Z,16.50
2018-06-30T21:33:30.548Z,16.50
2018-06-30T21:35:59.692Z,16.50
2018-06-30T21:38:28.778Z,16.50
2018-06-30T21:40:58.157Z,16.40
2018-06-30T21:43:27.209Z,16.40
2018-06-30T21:45:55.972Z,16.40
2018-06-30T21:48:24.712Z,16.30
2018-06-30T21:50:53.323Z,16.30
2018-06-30T21:53:22.129Z,16.30
2018-06-30T21:55:50.843Z,16.20
2018-06-30T21:58:19.952Z,16.20
2018-06-30T22:00:53.990Z,16.20
2018-06-30T22:03:24.712Z,16.30
2018-06-30T22:05:54.713Z,16.20
2018-06-30T22:10:51.859Z,16.10
2018-06-30T22:13:21.027Z,16.10
2018-06-30T22:15:50.588Z,16.00
2018-06-30T22:18:19.323Z,15.90
2018-06-30T22:20:48.449Z,15.90
2018-06-30T22:23:17.093Z,15.90
2018-06-30T22:25:46.284Z,15.90
2018-06-30T22:28:14.839Z,15.80
2018-06-30T22:30:43.619Z,15.70
2018-06-30T22:33:12.187Z,15.70
2018-06-30T22:35:41.493Z,15.70
2018-06-30T22:38:10.162Z,15.70
2018-06-30T22:40:38.784Z,15.60
2018-06-30T22:43:07.435Z,15.50
2018-06-30T22:45:36.156Z,15.60
2018-06-30T22:48:04.917Z,15.50
2018-06-30T22:50:33.572Z,15.40
2018-06-30T22:53:02.350Z,15.30
2018-06-30T22:55:30.975Z,15.30
2018-06-30T22:57:59.445Z,15.30
2018-06-30T23:00:28.072Z,15.20
2018-06-30T23:02:56.513Z,15.10
2018-06-30T23:05:25.005Z,15.10
2018-06-30T23:07:53.476Z,15.00
2018-06-30T23:10:21.955Z,15.00
2018-06-30T23:15:18.672Z,14.90
2018-06-30T23:17:47.345Z,14.90
2018-06-30T23:20:15.829Z,14.90
2018-06-30T23:23:07.260Z,14.80
2018-06-30T23:25:36.398Z,14.80
2018-06-30T23:28:04.997Z,14.70
2018-06-30T23:30:33.799Z,14.70
2018-06-30T23:33:02.298Z,14.60
2018-06-30T23:35:32.124Z,14.60
2018-06-30T23:38:01.382Z,14.50
2018-06-30T23:40:30.721Z,14.50
2018-06-30T23:42:59.216Z,14.40
2018-06-30T23:45:27.759Z,14.40
2018-06-30T23:47:56.238Z,14.40
2018-06-30T23:50:24.723Z,14.30
2018-06-30T23:52:53.224Z,14.20
2018-06-30T23:55:21.789Z,14.20
2018-06-30T23:57:50.330Z,14.20
